Nearby METAR Reports

 

KSEE - San Diego/Santee, California, USA
Distance from station: E 4mi, 6km
Updated: 08/23/2017 7:47am
Mist, Overcast
Mist, Overcast
 Wind from varies
Wind: varies 6 mph , 9 km/h
Temperature: 68°F , 20°C
Dew Point: 63°F , 17°C
Humidity: 83%
Barometer: 29.99 inHg , 1015.6 hPa
Summary: Mist
Clouds: Overcast
Visibility: 5 miles , 8 km
Cloud details: Overcast 1300 ft
2017/08/23 14:47 KSEE 231447Z VRB05KT 5SM BR OVC013 20/17 A2999
KMYF - San Diego/Mntgmy, California, USA
Distance from station: W 6mi, 10km
Updated: 08/23/2017 7:53am
Haze, Overcast
Haze, Overcast
 Wind from WSW
Wind: WSW 5 mph , 7 km/h
Temperature: 70°F , 21°C
Dew Point: 64°F , 18°C
Humidity: 83%
Barometer: 29.99 inHg , 1015.6 hPa
Summary: Haze
Clouds: Overcast
Visibility: 5 miles , 8 km
Cloud details: Overcast 600 ft
2017/08/23 14:53 KMYF 231453Z 24004KT 5SM HZ OVC006 21/18 A2999 RMK AO2 SLP151 T02060178 52009
 
KNKX - Miramar Nas/San, California, USA
Distance from station: WNW 7mi, 11km
Updated: 08/23/2017 7:55am
Overcast
Overcast
 Wind from calm
Wind: Calm
Temperature: 72°F , 22°C
Dew Point: 63°F , 17°C
Humidity: 73%
Barometer: 29.99 inHg , 1015.6 hPa
Clouds: Overcast
Visibility: 7 miles , 11 km
Cloud details: Overcast 700 ft
2017/08/23 14:55 KNKX 231455Z 00000KT 7SM OVC007 22/17 A2999 RMK AO2 SLP149 T02170172 51009 $
KSAN - San Diego, California, USA
Distance from station: WSW 11mi, 17km
Updated: 08/23/2017 7:51am
Overcast
Overcast
 Wind from WNW
Wind: WNW 5 mph , 7 km/h
Temperature: 70°F , 21°C
Dew Point: 63°F , 17°C
Humidity: 78%
Barometer: 30.00 inHg , 1015.9 hPa
Clouds: Overcast
Visibility: 9 miles , 14 km
Cloud details: Overcast 1000 ft
2017/08/23 14:51 KSAN 231451Z 29004KT 9SM OVC010 21/17 A3000 RMK AO2 SLP158 60000 T02060172 52009
 
KNZY - North Island Nas, California, USA
Distance from station: SW 13mi, 22km
Updated: 08/23/2017 7:52am
Light drizzle, Overcast
Light drizzle, Overcast
 Wind from SSW
Wind: SSW 5 mph , 7 km/h
Temperature: 68°F , 20°C
Dew Point: 63°F , 17°C
Humidity: 83%
Barometer: 29.98 inHg , 1015.2 hPa
Summary: Light Drizzle
Clouds: Overcast
Visibility: 7 miles , 11 km
Cloud details: Overcast 1000 ft
2017/08/23 14:52 KNZY 231452Z 21004KT 7SM -DZ OVC010 20/17 A2998 RMK DZB51 SLP152 P0000 60000 T0200172 53010
KRNM - Ramona, California, USA
Distance from station: NNE 16mi, 26km
Updated: 08/23/2017 8:09am
Mist, Overcast
Mist, Overcast
 Wind from calm
Wind: Calm
Temperature: 64°F , 18°C
Dew Point: 63°F , 17°C
Humidity: 94%
Barometer: 30.01 inHg , 1016.3 hPa
Summary: Mist
Clouds: Overcast
Visibility: 4 miles , 6 km
Cloud details: Overcast 500 ft
2017/08/23 15:09 KRNM 231509Z 00000KT 4SM BR OVC005 18/17 A3001 RMK AO2 T01830172
 
KSDM - San Diego/Brown, California, USA
Distance from station: S 16mi, 26km
Updated: 08/23/2017 7:53am
Mist, Overcast
Mist, Overcast
 Wind from W
Wind: W 5 mph , 7 km/h
Temperature: 66°F , 19°C
Dew Point: 64°F , 18°C
Humidity: 94%
Barometer: 29.99 inHg , 1015.6 hPa
Summary: Mist
Clouds: Overcast
Visibility: 3 miles , 5 km
Cloud details: Overcast 700 ft
2017/08/23 14:53 KSDM 231453Z 27004KT 3SM BR OVC007 19/18 A2999 RMK AO2 CIG 004V009 SLP151 T01890183 51005
KNRS - Imperial Beach, California, USA
Distance from station: SSW 18mi, 29km
Updated: 08/23/2017 7:56am
Light drizzle, Overcast
Light drizzle, Overcast
 Wind from W
Wind: W 5 mph , 7 km/h
Temperature: 66°F , 19°C
Dew Point: 63°F , 17°C
Humidity: 88%
Barometer: 29.99 inHg , 1015.6 hPa
Summary: Light Drizzle
Clouds: Overcast
Visibility: 7 miles , 11 km
Cloud details: Overcast 1100 ft
2017/08/23 14:56 KNRS 231456Z 28004KT 7SM -DZ OVC011 19/17 A2999 RMK AO2 CIG 009V013 SLP156 P0000 60000 T01940172 51009 $
 
MMTJ - Tijuana Intl Arp, Mexico
Distance from station: S 20mi, 32km
Updated: 08/23/2017 7:43am
Mist, Overcast
Mist, Overcast
 Wind from W
Wind: W 6 mph , 9 km/h
Temperature: 64°F , 18°C
Dew Point: 63°F , 17°C
Humidity: 94%
Barometer: 30.02 inHg , 1016.6 hPa
Summary: Mist
Clouds: Overcast
Visibility: 2 miles , 3 km
Cloud details: Overcast 600 ft
2017/08/23 14:43 MMTJ 231443Z 27005KT 2SM BR OVC006 18/17 A3002 RMK SLP159 52008 968 8/6//
KCRQ - Carlsbad, California, USA
Distance from station: NW 26mi, 43km
Updated: 08/23/2017 7:53am
Mist, Overcast
Mist, Overcast
 Wind from calm
Wind: Calm
Temperature: 66°F , 19°C
Dew Point: 64°F , 18°C
Humidity: 94%
Barometer: 29.98 inHg , 1015.2 hPa
Summary: Mist
Clouds: Overcast
Visibility: 6 miles , 10 km
Cloud details: Overcast 800 ft
2017/08/23 14:53 KCRQ 231453Z AUTO 00000KT 6SM BR OVC008 19/18 A2998 RMK AO2 SLP149 T01940183 53008
 
KOKB - Oceanside, California, USA
Distance from station: NW 33mi, 54km
Updated: 08/23/2017 7:52am
Mist, Overcast
Mist, Overcast
 Wind from N
Wind: N 5 mph , 7 km/h
Temperature: 68°F , 20°C
Dew Point: 64°F , 18°C
Humidity: 88%
Barometer: 29.98 inHg , 1015.2 hPa
Summary: Mist
Clouds: Overcast
Visibility: 6 miles , 10 km
Cloud details: Overcast 1100 ft
2017/08/23 14:52 KOKB 231452Z AUTO 36004KT 6SM BR OVC011 20/18 A2998 RMK AO2 SLP151 T02000183 53009
KCZZ - Campo, California, USA
Distance from station: ESE 35mi, 56km
Updated: 08/23/2017 7:52am

 Wind from calm
Wind: Calm
Temperature: 70°F , 21°C
Dew Point: 52°F , 11°C
Humidity: 53%
Barometer: 30.00 inHg , 1015.9 hPa
2017/08/23 14:52 KCZZ 231452Z AUTO 00000KT 21/11 A3000 RMK AO1 SLP128 T02060111 51007
 
KNFG - Camp Pendleton, California, USA
Distance from station: NNW 37mi, 59km
Updated: 08/23/2017 7:55am
Mist, Overcast
Mist, Overcast
 Wind from calm
Wind: Calm
Temperature: 57°F , 14°C
Dew Point: 57°F , 14°C
Humidity: 100%
Barometer: 29.99 inHg , 1015.6 hPa
Summary: Mist
Clouds: Overcast
Visibility: 3 miles , 5 km
Cloud details: Overcast 1000 ft
2017/08/23 14:55 KNFG 231455Z 00000KT 3SM BR OVC010 14/14 A2999 RMK AO2 SLP154 T01390139 53011 $
KRIV - Riverside/March, California, USA
Distance from station: N 74mi, 119km
Updated: 08/23/2017 7:58am
Clear
Clear
 Wind from WSW
Wind: WSW 3 mph , 6 km/h
Temperature: 66°F , 19°C
Dew Point: 66°F , 19°C
Humidity: 100%
Barometer: 30.00 inHg , 1015.9 hPa
Clouds: Clear
Visibility: 10 miles , 16 km
2017/08/23 14:58 KRIV 231458Z AUTO 25003KT 10SM CLR 19/19 A3000 RMK AO2 SLP148 T01930193 51009
 
KTRM - Thermal/Palm Spg, California, USA
Distance from station: NE 75mi, 121km
Updated: 08/23/2017 7:52am
Haze, Clear
Haze, Clear
 Wind from NNW
Wind: NNW 3 mph , 6 km/h
Temperature: 88°F , 31°C
Heat Index: 88°F , 31°C
Dew Point: 61°F , 16°C
Humidity: 40%
Barometer: 29.83 inHg , 1010.2 hPa
Summary: Haze
Clouds: Clear
Visibility: 4 miles , 6 km
2017/08/23 14:52 KTRM 231452Z AUTO 34003KT 4SM HZ CLR 31/16 A2983 RMK AO2 SLP103 T03110156 53017
KPSP - Palm Springs, California, USA
Distance from station: NNE 76mi, 122km
Updated: 08/23/2017 7:53am
Clear
Clear
 Wind from calm
Wind: Calm
Temperature: 86°F , 30°C
Dew Point: 57°F , 14°C
Humidity: 38%
Barometer: 29.88 inHg , 1011.9 hPa
Clouds: Clear
Visibility: 10 miles , 16 km
2017/08/23 14:53 KPSP 231453Z 00000KT 10SM CLR 30/14 A2988 RMK AO2 SLP114 T03000139 53015
 
KSNA - Costa Mesa, California, USA
Distance from station: NW 76mi, 123km
Updated: 08/23/2017 7:53am
Overcast
Overcast
 Wind from SW
Wind: SW 3 mph , 6 km/h
Temperature: 68°F , 20°C
Dew Point: 63°F , 17°C
Humidity: 83%
Barometer: 29.98 inHg , 1015.2 hPa
Clouds: Overcast
Visibility: 9 miles , 14 km
Cloud details: Overcast 1500 ft
2017/08/23 14:53 KSNA 231453Z 22003KT 9SM OVC015 20/17 A2998 RMK AO2 SLP149 T02000172 53006
KNJK - El Centro Naf, California, USA
Distance from station: E 79mi, 127km
Updated: 08/23/2017 7:56am
Clear
Clear
 Wind from SE
Wind: SE 5 mph , 7 km/h
Temperature: 88°F , 31°C
Heat Index: 95°F , 35°C
Dew Point: 72°F , 22°C
Humidity: 59%
Barometer: 29.84 inHg , 1010.5 hPa
Clouds: Clear
Visibility: 10 miles , 16 km
2017/08/23 14:56 KNJK 231456Z 13004KT 10SM CLR 31/22 A2984 RMK AO2 SLP121 T03060222 53012
 
KAJO - Corona Muni, California, USA
Distance from station: NNW 82mi, 132km
Updated: 08/23/2017 7:56am
Overcast
Overcast
 Wind from calm
Wind: Calm
Temperature: 66°F , 19°C
Dew Point: 63°F , 17°C
Humidity: 88%
Barometer: 29.99 inHg , 1015.6 hPa
Clouds: Overcast
Visibility: 7 miles , 11 km
Cloud details: Overcast 1100 ft
2017/08/23 14:56 KAJO 231456Z AUTO 00000KT 7SM OVC011 19/17 A2999 RMK AO2 SLP162 T01890167 51009